createdAt,value
2019-05-20T00:00:44.388Z,14.90
2019-05-20T00:03:13.634Z,14.80
2019-05-20T00:05:43.179Z,14.80
2019-05-20T00:08:12.374Z,14.80
2019-05-20T00:10:41.684Z,14.80
2019-05-20T00:13:10.986Z,14.70
2019-05-20T00:15:40.256Z,14.70
2019-05-20T00:18:09.574Z,14.80
2019-05-20T00:20:38.886Z,14.70
2019-05-20T00:23:08.309Z,14.70
2019-05-20T00:25:37.593Z,14.70
2019-05-20T00:28:06.998Z,14.70
2019-05-20T00:30:36.166Z,14.70
2019-05-20T00:33:05.346Z,14.70
2019-05-20T00:35:34.606Z,14.60
2019-05-20T00:38:03.887Z,14.60
2019-05-20T00:40:33.009Z,14.60
2019-05-20T00:43:02.079Z,14.60
2019-05-20T00:45:31.149Z,14.60
2019-05-20T00:48:00.209Z,14.60
2019-05-20T00:50:29.375Z,14.60
2019-05-20T00:52:58.435Z,14.50
2019-05-20T00:55:30.762Z,14.60
2019-05-20T00:57:59.970Z,14.60
2019-05-20T01:00:29.324Z,14.50
2019-05-20T01:02:58.333Z,14.50
2019-05-20T01:05:27.447Z,14.50
2019-05-20T01:07:56.673Z,14.50
2019-05-20T01:10:25.653Z,14.50
2019-05-20T01:12:54.523Z,14.50
2019-05-20T01:15:23.571Z,14.40
2019-05-20T01:17:52.435Z,14.40
2019-05-20T01:20:21.331Z,14.40
2019-05-20T01:22:50.192Z,14.40
2019-05-20T01:25:18.982Z,14.50
2019-05-20T01:27:48.031Z,14.50
2019-05-20T01:30:17.543Z,14.40
2019-05-20T01:32:46.427Z,14.40
2019-05-20T01:35:15.762Z,14.40
2019-05-20T01:37:44.601Z,14.40
2019-05-20T01:40:13.934Z,14.40
2019-05-20T01:42:42.759Z,14.40
2019-05-20T01:45:11.873Z,14.40
2019-05-20T01:47:40.742Z,14.30
2019-05-20T01:50:09.932Z,14.30
2019-05-20T01:52:38.773Z,14.30
2019-05-20T01:55:07.851Z,14.40
2019-05-20T01:57:36.744Z,14.40
2019-05-20T02:00:06.795Z,14.40
2019-05-20T02:02:35.822Z,14.40
2019-05-20T02:05:05.607Z,14.30
2019-05-20T02:07:34.476Z,14.30
2019-05-20T02:10:03.741Z,14.30
2019-05-20T02:12:32.554Z,14.30
2019-05-20T02:15:07.434Z,14.20
2019-05-20T02:17:36.448Z,14.20
2019-05-20T02:20:06.114Z,14.20
2019-05-20T02:22:35.234Z,14.20
2019-05-20T02:25:04.194Z,14.10
2019-05-20T02:27:33.066Z,14.10
2019-05-20T02:30:02.017Z,14.10
2019-05-20T02:32:30.936Z,14.20
2019-05-20T02:34:59.859Z,14.20
2019-05-20T02:37:28.877Z,14.10
2019-05-20T02:39:57.779Z,14.10
2019-05-20T02:42:26.779Z,14.10
2019-05-20T02:44:55.920Z,14.10
2019-05-20T02:47:24.826Z,14.10
2019-05-20T02:49:53.689Z,14.10
2019-05-20T02:52:22.653Z,14.10
2019-05-20T02:54:51.607Z,14.10
2019-05-20T02:57:20.632Z,14.10
2019-05-20T02:59:49.423Z,14.10
2019-05-20T03:02:18.281Z,14.10
2019-05-20T03:04:47.185Z,14.10
2019-05-20T03:07:16.126Z,14.10
2019-05-20T03:09:45.141Z,14.10
2019-05-20T03:12:13.997Z,14.00
2019-05-20T03:14:42.899Z,14.00
2019-05-20T03:17:12.012Z,14.00
2019-05-20T03:19:41.029Z,14.00
2019-05-20T03:22:09.952Z,14.00
2019-05-20T03:24:39.230Z,14.00
2019-05-20T03:27:08.127Z,14.00
2019-05-20T03:29:37.045Z,14.00
2019-05-20T03:32:05.942Z,14.00
2019-05-20T03:34:50.844Z,14.00
2019-05-20T03:37:05.469Z,14.00
2019-05-20T03:39:34.452Z,14.00
2019-05-20T03:42:03.389Z,14.10
2019-05-20T03:44:32.275Z,14.10
2019-05-20T03:47:01.127Z,14.10
2019-05-20T03:49:30.063Z,14.20
2019-05-20T03:51:59.006Z,14.20
2019-05-20T03:54:27.935Z,14.20
2019-05-20T03:56:56.867Z,14.30
2019-05-20T03:59:25.666Z,14.30
2019-05-20T04:01:54.752Z,14.30
2019-05-20T04:04:25.243Z,14.40
2019-05-20T04:06:54.321Z,14.40
2019-05-20T04:09:23.324Z,14.40
2019-05-20T04:11:52.220Z,14.40
2019-05-20T04:14:21.081Z,14.40
2019-05-20T04:16:51.845Z,14.50
2019-05-20T04:19:20.737Z,14.50
2019-05-20T04:21:49.630Z,14.50
2019-05-20T04:24:18.690Z,14.50
2019-05-20T04:26:49.049Z,14.60
2019-05-20T04:29:18.128Z,14.60
2019-05-20T04:31:47.555Z,14.60
2019-05-20T04:34:16.616Z,14.70
2019-05-20T04:36:45.541Z,14.70
2019-05-20T04:39:14.451Z,14.70
2019-05-20T04:41:43.338Z,14.80
2019-05-20T04:44:12.151Z,14.80
2019-05-20T04:46:41.027Z,14.80
2019-05-20T04:49:09.945Z,14.90
2019-05-20T04:51:38.892Z,14.90
2019-05-20T04:54:07.951Z,14.90
2019-05-20T04:56:36.898Z,14.90
2019-05-20T04:59:08.693Z,15.00
2019-05-20T05:01:37.530Z,15.00
2019-05-20T05:04:06.437Z,15.00
2019-05-20T05:06:35.304Z,15.00
2019-05-20T05:09:05.913Z,15.00
2019-05-20T05:11:34.906Z,15.00
2019-05-20T05:14:03.947Z,15.00
2019-05-20T05:16:32.944Z,15.00
2019-05-20T05:19:02.220Z,15.00
2019-05-20T05:21:31.246Z,15.10
2019-05-20T05:24:00.344Z,15.10
2019-05-20T05:26:29.462Z,15.20
2019-05-20T05:28:58.561Z,15.40
2019-05-20T05:31:27.582Z,15.50
2019-05-20T05:33:56.693Z,15.60
2019-05-20T05:36:25.933Z,15.60
2019-05-20T05:38:54.869Z,15.70
2019-05-20T05:41:23.776Z,15.80
2019-05-20T05:43:52.627Z,15.70
2019-05-20T05:46:21.527Z,15.80
2019-05-20T05:48:50.628Z,15.80
2019-05-20T05:51:19.566Z,15.80
2019-05-20T05:53:48.607Z,15.80
2019-05-20T05:56:17.428Z,15.90
2019-05-20T05:58:46.445Z,15.90
2019-05-20T06:01:15.340Z,16.00
2019-05-20T06:03:44.283Z,16.20
2019-05-20T06:06:13.617Z,16.30
2019-05-20T06:08:42.688Z,16.40
2019-05-20T06:11:11.805Z,16.50
2019-05-20T06:13:40.842Z,16.60
2019-05-20T06:18:39.596Z,16.90
2019-05-20T06:21:08.989Z,17.00
2019-05-20T06:23:37.923Z,17.00
2019-05-20T06:26:06.776Z,17.10
2019-05-20T06:28:35.678Z,17.10
2019-05-20T06:31:04.656Z,17.20
2019-05-20T06:33:33.676Z,17.20
2019-05-20T06:36:02.840Z,17.30
2019-05-20T06:38:57.243Z,17.30
2019-05-20T06:41:26.266Z,17.40
2019-05-20T06:43:55.256Z,17.50
2019-05-20T06:46:24.314Z,17.50
2019-05-20T06:48:53.320Z,17.60
2019-05-20T06:51:22.191Z,17.60
2019-05-20T06:53:51.035Z,17.70
2019-05-20T06:56:20.075Z,17.80
2019-05-20T06:58:48.996Z,17.90
2019-05-20T07:01:17.905Z,18.00
2019-05-20T07:03:46.822Z,18.20
2019-05-20T07:06:15.661Z,18.40
2019-05-20T07:08:44.645Z,18.50
2019-05-20T07:11:13.643Z,18.60
2019-05-20T07:13:42.577Z,18.70
2019-05-20T07:16:11.477Z,18.90
2019-05-20T07:18:40.409Z,19.10
2019-05-20T07:21:09.445Z,19.30
2019-05-20T07:23:38.463Z,19.40
2019-05-20T07:26:22.181Z,19.60
2019-05-20T07:28:51.121Z,19.80
2019-05-20T07:31:20.106Z,20.00
2019-05-20T07:33:49.099Z,20.10
2019-05-20T07:36:18.193Z,20.40
2019-05-20T07:38:47.082Z,20.60
2019-05-20T07:41:16.489Z,20.70
2019-05-20T07:43:45.481Z,20.70
2019-05-20T07:46:14.985Z,20.70
2019-05-20T07:48:44.611Z,20.90
2019-05-20T07:51:14.449Z,20.90
2019-05-20T07:53:43.764Z,20.90
2019-05-20T07:56:17.178Z,21.00
2019-05-20T07:58:50.010Z,21.10
2019-05-20T08:01:18.936Z,21.20
2019-05-20T08:03:47.948Z,21.40
2019-05-20T08:06:17.124Z,21.60
2019-05-20T08:08:46.277Z,21.60
2019-05-20T08:11:15.441Z,21.90
2019-05-20T08:13:44.441Z,22.40
2019-05-20T08:16:13.615Z,23.00
2019-05-20T08:21:11.208Z,25.90
2019-05-20T08:23:40.210Z,27.30
2019-05-20T08:28:37.915Z,29.70
2019-05-20T08:31:06.915Z,30.60
2019-05-20T08:33:36.205Z,30.50
2019-05-20T08:50:21.907Z,31.90
2019-05-20T08:52:55.801Z,32.20
2019-05-20T08:55:28.963Z,32.10
2019-05-20T09:01:39.077Z,31.90
2019-05-20T09:04:48.538Z,31.80
2019-05-20T09:11:48.213Z,32.70
2019-05-20T09:15:15.319Z,33.00
2019-05-20T09:17:39.832Z,32.90
2019-05-20T09:20:21.949Z,32.90
2019-05-20T09:23:26.837Z,32.80
2019-05-20T09:29:15.898Z,32.90
2019-05-20T09:35:01.312Z,33.60
2019-05-20T09:38:21.454Z,33.50
2019-05-20T09:43:58.843Z,34.20
2019-05-20T09:46:44.923Z,33.70
2019-05-20T09:49:28.559Z,33.40
2019-05-20T09:59:47.137Z,34.10
2019-05-20T10:02:19.770Z,34.30
2019-05-20T10:08:08.036Z,34.20
2019-05-20T10:10:27.273Z,34.10
2019-05-20T10:13:07.935Z,34.20
2019-05-20T10:15:57.866Z,33.90
2019-05-20T10:18:38.948Z,33.80
2019-05-20T10:21:54.090Z,33.50
2019-05-20T10:24:47.346Z,33.40
2019-05-20T10:37:48.363Z,34.50
2019-05-20T10:40:32.365Z,34.80
2019-05-20T10:44:24.390Z,35.00
2019-05-20T10:48:19.877Z,34.30
2019-05-20T10:57:21.416Z,35.70
2019-05-20T11:00:03.168Z,35.90
2019-05-20T11:02:43.235Z,35.90
2019-05-20T11:06:12.323Z,35.80
2019-05-20T11:08:51.209Z,34.70
2019-05-20T11:14:29.753Z,32.00
2019-05-20T11:17:15.298Z,31.20
2019-05-20T11:19:49.309Z,30.50
2019-05-20T11:22:18.966Z,29.60
2019-05-20T11:25:17.674Z,28.90
2019-05-20T11:28:11.957Z,28.60
2019-05-20T11:30:33.538Z,28.10
2019-05-20T11:33:57.682Z,28.00
2019-05-20T11:37:07.094Z,27.80
2019-05-20T11:40:00.220Z,27.70
2019-05-20T11:45:54.686Z,27.50
2019-05-20T11:48:45.916Z,27.50
2019-05-20T11:51:32.885Z,27.60
2019-05-20T11:54:01.583Z,27.90
2019-05-20T12:00:18.415Z,28.00
2019-05-20T12:08:56.981Z,28.30
2019-05-20T13:04:07.109Z,29.00
2019-05-20T13:06:38.832Z,27.60
2019-05-20T13:09:09.295Z,27.20
2019-05-20T13:24:34.826Z,27.30
2019-05-20T13:27:03.988Z,27.20
2019-05-20T13:34:30.045Z,26.70
2019-05-20T13:36:59.123Z,26.20
2019-05-20T13:39:28.213Z,26.10
2019-05-20T13:44:26.132Z,25.80
2019-05-20T13:46:55.232Z,25.60
2019-05-20T13:49:25.346Z,25.50
2019-05-20T13:54:23.189Z,24.90
2019-05-20T13:56:52.401Z,24.80
2019-05-20T13:59:21.524Z,24.70
2019-05-20T14:01:50.485Z,24.60
2019-05-20T14:04:19.855Z,24.30
2019-05-20T14:06:48.929Z,24.10
2019-05-20T14:09:18.175Z,24.00
2019-05-20T14:14:15.741Z,23.70
2019-05-20T14:16:44.809Z,23.60
2019-05-20T14:19:13.815Z,23.40
2019-05-20T14:21:42.774Z,23.10
2019-05-20T14:24:11.692Z,22.70
2019-05-20T14:26:40.813Z,22.30
2019-05-20T14:29:09.786Z,21.90
2019-05-20T14:31:38.775Z,21.60
2019-05-20T14:34:07.941Z,21.20
2019-05-20T14:36:39.730Z,21.00
2019-05-20T14:39:08.290Z,20.80
2019-05-20T14:41:38.452Z,20.50
2019-05-20T14:46:37.707Z,20.00
2019-05-20T14:49:08.602Z,19.80
2019-05-20T14:51:39.160Z,19.60
2019-05-20T14:54:10.033Z,19.50
2019-05-20T14:56:39.593Z,19.40
2019-05-20T14:59:10.849Z,19.30
2019-05-20T15:01:40.851Z,19.20
2019-05-20T15:04:11.785Z,19.20
2019-05-20T15:06:42.957Z,19.10
2019-05-20T15:09:12.903Z,19.00
2019-05-20T15:12:00.951Z,18.90
2019-05-20T15:14:33.866Z,18.90
2019-05-20T15:17:04.656Z,18.80
2019-05-20T15:19:34.987Z,18.80
2019-05-20T15:22:04.740Z,18.70
2019-05-20T15:24:35.198Z,18.70
2019-05-20T15:27:09.808Z,18.60
2019-05-20T15:29:39.796Z,18.70
2019-05-20T15:32:10.501Z,18.70
2019-05-20T15:34:46.338Z,18.40
2019-05-20T15:37:17.752Z,17.90
2019-05-20T15:39:48.303Z,17.10
2019-05-20T15:42:18.100Z,16.50
2019-05-20T15:48:27.347Z,16.10
2019-05-20T15:50:56.612Z,16.00
2019-05-20T15:53:25.671Z,15.90
2019-05-20T15:55:54.964Z,16.00
2019-05-20T15:58:24.161Z,16.10
2019-05-20T16:00:53.168Z,16.10
2019-05-20T16:03:22.133Z,16.20
2019-05-20T16:05:51.589Z,16.30
2019-05-20T16:08:21.075Z,16.30
2019-05-20T16:10:51.268Z,16.40
2019-05-20T16:13:21.203Z,16.50
2019-05-20T16:15:50.602Z,16.50
2019-05-20T16:18:22.747Z,16.60
2019-05-20T16:20:52.221Z,16.70
2019-05-20T16:23:21.914Z,16.70
2019-05-20T16:25:51.155Z,16.80
2019-05-20T16:28:20.208Z,16.90
2019-05-20T16:30:49.310Z,17.10
2019-05-20T16:33:18.309Z,17.20
2019-05-20T16:35:47.218Z,17.40
2019-05-20T16:38:16.265Z,17.50
2019-05-20T16:40:45.562Z,17.60
2019-05-20T16:43:14.699Z,17.70
2019-05-20T16:45:43.591Z,17.70
2019-05-20T16:48:12.846Z,17.80
2019-05-20T16:50:41.839Z,17.80
2019-05-20T16:53:10.887Z,17.80
2019-05-20T16:55:39.787Z,17.80
2019-05-20T16:58:08.717Z,17.80
2019-05-20T17:00:37.673Z,17.90
2019-05-20T17:03:06.510Z,17.90
2019-05-20T17:05:35.535Z,18.00
2019-05-20T17:08:04.610Z,18.00
2019-05-20T17:10:33.571Z,18.00
2019-05-20T17:13:02.635Z,18.00
2019-05-20T17:15:31.673Z,18.00
2019-05-20T17:18:00.505Z,17.90
2019-05-20T17:20:29.645Z,17.90
2019-05-20T17:22:58.919Z,17.90
2019-05-20T17:25:31.037Z,17.90
2019-05-20T17:28:00.079Z,17.90
2019-05-20T17:30:29.245Z,17.90
2019-05-20T17:32:58.360Z,17.90
2019-05-20T17:35:27.522Z,17.90
2019-05-20T17:37:57.113Z,17.90
2019-05-20T17:40:26.492Z,17.90
2019-05-20T17:42:55.731Z,17.90
2019-05-20T17:45:24.927Z,17.80
2019-05-20T17:47:54.250Z,17.90
2019-05-20T17:50:23.794Z,17.90
2019-05-20T17:52:52.970Z,17.90
2019-05-20T17:55:22.571Z,17.80
2019-05-20T17:57:51.661Z,17.80
2019-05-20T18:00:23.735Z,17.80
2019-05-20T18:02:52.769Z,17.80
2019-05-20T18:05:21.996Z,17.80
2019-05-20T18:07:51.088Z,17.80
2019-05-20T18:10:23.401Z,17.70
2019-05-20T18:12:52.658Z,17.80
2019-05-20T18:15:24.426Z,17.80
2019-05-20T18:17:53.792Z,17.80
2019-05-20T18:20:23.051Z,17.90
2019-05-20T18:22:52.084Z,17.90
2019-05-20T18:25:21.316Z,18.00
2019-05-20T18:27:51.616Z,17.90
2019-05-20T18:30:23.311Z,17.90
2019-05-20T18:32:53.046Z,17.70
2019-05-20T18:35:22.523Z,17.60
2019-05-20T18:37:51.958Z,17.50
2019-05-20T18:40:26.042Z,17.40
2019-05-20T18:42:55.476Z,17.30
2019-05-20T18:45:24.729Z,17.30
2019-05-20T18:47:59.288Z,17.20
2019-05-20T18:50:28.038Z,17.20
2019-05-20T18:53:10.931Z,17.10
2019-05-20T18:55:45.823Z,17.00
2019-05-20T18:58:18.221Z,17.00
2019-05-20T19:00:48.858Z,17.00
2019-05-20T19:03:18.877Z,17.00
2019-05-20T19:05:50.127Z,17.00
2019-05-20T19:08:19.961Z,17.00
2019-05-20T19:10:49.659Z,17.00
2019-05-20T19:13:29.869Z,17.00
2019-05-20T19:15:59.378Z,17.00
2019-05-20T19:18:28.766Z,17.00
2019-05-20T19:20:58.135Z,17.00
2019-05-20T19:23:28.931Z,17.10
2019-05-20T19:25:58.137Z,17.10
2019-05-20T19:28:27.443Z,17.10
2019-05-20T19:30:56.855Z,17.10
2019-05-20T19:33:26.332Z,17.10
2019-05-20T19:35:55.383Z,17.10
2019-05-20T19:38:24.616Z,17.00
2019-05-20T19:40:53.618Z,16.90
2019-05-20T19:43:22.828Z,16.80
2019-05-20T19:45:52.003Z,16.70
2019-05-20T19:48:21.089Z,16.70
2019-05-20T19:50:50.101Z,16.60
2019-05-20T19:53:19.138Z,16.50
2019-05-20T19:55:48.382Z,16.50
2019-05-20T19:58:17.435Z,16.40
2019-05-20T20:00:47.128Z,16.30
2019-05-20T20:03:16.162Z,16.20
2019-05-20T20:05:45.225Z,16.20
2019-05-20T20:08:14.312Z,16.10
2019-05-20T20:10:43.460Z,16.00
2019-05-20T20:13:12.535Z,16.00
2019-05-20T20:15:42.928Z,15.90
2019-05-20T20:18:12.013Z,15.90
2019-05-20T20:20:41.071Z,15.80
2019-05-20T20:23:10.125Z,15.80
2019-05-20T20:25:39.399Z,15.70
2019-05-20T20:28:08.666Z,15.70
2019-05-20T20:30:37.853Z,15.70
2019-05-20T20:33:07.047Z,15.60
2019-05-20T20:35:38.421Z,15.70
2019-05-20T20:38:06.802Z,15.70
2019-05-20T20:40:35.870Z,15.70
2019-05-20T20:43:05.640Z,15.70
2019-05-20T20:45:34.830Z,15.80
2019-05-20T20:48:03.905Z,15.80
2019-05-20T20:50:33.594Z,15.80
2019-05-20T20:53:02.730Z,15.90
2019-05-20T20:55:32.564Z,15.90
2019-05-20T20:58:01.670Z,16.00
2019-05-20T21:00:30.696Z,16.00
2019-05-20T21:02:59.648Z,16.00
2019-05-20T21:05:28.623Z,16.00
2019-05-20T21:07:57.736Z,15.90
2019-05-20T21:10:26.725Z,15.80
2019-05-20T21:12:55.734Z,15.80
2019-05-20T21:15:24.716Z,15.70
2019-05-20T21:17:53.706Z,15.70
2019-05-20T21:20:22.548Z,15.60
2019-05-20T21:22:51.610Z,15.50
2019-05-20T21:25:20.556Z,15.40
2019-05-20T21:27:49.409Z,15.30
2019-05-20T21:30:20.142Z,15.30
2019-05-20T21:32:49.114Z,15.20
2019-05-20T21:35:18.113Z,15.10
2019-05-20T21:37:47.160Z,15.00
2019-05-20T21:40:16.264Z,15.00
2019-05-20T21:42:45.428Z,15.00
2019-05-20T21:45:14.819Z,14.90
2019-05-20T21:47:46.256Z,14.90
2019-05-20T21:50:15.356Z,14.80
2019-05-20T21:52:44.298Z,14.80
2019-05-20T21:55:13.735Z,14.80
2019-05-20T21:57:42.863Z,14.70
2019-05-20T22:00:16.124Z,14.70
2019-05-20T22:02:45.254Z,14.70
2019-05-20T22:05:14.363Z,14.60
2019-05-20T22:07:43.322Z,14.60
2019-05-20T22:10:13.505Z,14.60
2019-05-20T22:12:42.587Z,14.60
2019-05-20T22:15:11.743Z,14.60
2019-05-20T22:17:40.687Z,14.50
2019-05-20T22:20:09.722Z,14.50
2019-05-20T22:22:44.019Z,14.50
2019-05-20T22:25:12.930Z,14.40
2019-05-20T22:27:41.933Z,14.40
2019-05-20T22:30:11.233Z,14.40
2019-05-20T22:32:57.975Z,14.40
2019-05-20T22:35:26.845Z,14.30
2019-05-20T22:37:56.513Z,14.30
2019-05-20T22:40:25.447Z,14.30
2019-05-20T22:42:54.415Z,14.20
2019-05-20T22:45:23.309Z,14.20
2019-05-20T22:47:52.210Z,14.10
2019-05-20T22:50:21.153Z,14.10
2019-05-20T22:52:50.085Z,14.10
2019-05-20T22:55:19.023Z,14.10
2019-05-20T22:57:49.177Z,14.10
2019-05-20T23:00:18.302Z,14.00
2019-05-20T23:02:47.257Z,14.00
2019-05-20T23:05:36.267Z,14.00
2019-05-20T23:08:05.279Z,14.00
2019-05-20T23:10:34.723Z,13.90
2019-05-20T23:13:03.769Z,13.90
2019-05-20T23:15:34.223Z,13.80
2019-05-20T23:20:31.879Z,13.80
2019-05-20T23:23:00.872Z,13.70
2019-05-20T23:25:29.803Z,13.70
2019-05-20T23:27:59.004Z,13.60
2019-05-20T23:30:28.015Z,13.60
2019-05-20T23:32:57.016Z,13.60
2019-05-20T23:35:25.854Z,13.60
2019-05-20T23:37:54.940Z,13.60
2019-05-20T23:40:30.078Z,13.50
2019-05-20T23:42:56.160Z,13.50
2019-05-20T23:45:24.990Z,13.50
2019-05-20T23:47:54.019Z,13.50
2019-05-20T23:50:22.892Z,13.50
2019-05-20T23:52:51.782Z,13.50
2019-05-20T23:55:20.775Z,13.50
